Time;durP1;ratioP1;P1;durP2;ratioP2;P2;SDS_P1;SDS_P2;PMS_P1;PMS_P2;Temp;Humidity;BMP_temperature;BMP_pressure;BME280_temperature;BME280_humidity;BME280_pressure;Samples;Min_cycle;Max_cycle;Signal;HPM_P1;HPM_P2
2023/05/17 00:02:56;;;;;;;13.45;5.68;;;;;;;;;;6262597;23;20166;-92
2023/05/17 00:06:01;;;;;;;10.02;5.18;;;;;;;;;;6279542;22;20170;-89
2023/05/17 00:09:07;;;;;;;12.00;4.80;;;;;;;;;;6277664;22;20166;-92
2023/05/17 00:12:13;;;;;;;9.55;4.55;;;;;;;;;;6277436;22;20154;-89
2023/05/17 00:15:18;;;;;;;11.63;4.20;;;;;;;;;;6258901;23;20190;-90
2023/05/17 00:18:30;;;;;;;15.35;4.90;;;;;;;;;;6259412;23;20167;-91
2023/05/17 00:25:07;;;;;;;11.43;4.00;;;;;;;;;;6243056;22;20162;-92
2023/05/17 00:32:02;;;;;;;15.20;4.72;;;;;;;;;;6242327;22;20547;-91
2023/05/17 00:35:08;;;;;;;15.10;3.90;;;;;;;;;;6258780;22;20183;-91
2023/05/17 00:38:13;;;;;;;9.40;4.05;;;;;;;;;;6241118;22;20247;-92
2023/05/17 00:41:18;;;;;;;9.43;4.40;;;;;;;;;;6256822;23;20613;-91
2023/05/17 00:44:24;;;;;;;11.25;3.65;;;;;;;;;;6258370;22;20146;-91
2023/05/17 00:47:30;;;;;;;10.02;3.35;;;;;;;;;;6256625;22;20214;-90
2023/05/17 00:50:36;;;;;;;14.98;3.67;;;;;;;;;;6239127;23;20498;-92
2023/05/17 00:53:41;;;;;;;10.43;3.33;;;;;;;;;;6257822;22;20178;-92
2023/05/17 00:56:47;;;;;;;8.93;3.15;;;;;;;;;;6255898;22;20522;-91
2023/05/17 00:59:51;;;;;;;9.80;3.50;;;;;;;;;;6241722;22;20215;-91
2023/05/17 01:02:58;;;;;;;9.40;3.20;;;;;;;;;;6241103;22;20170;-89
2023/05/17 01:06:04;;;;;;;8.25;3.50;;;;;;;;;;6258489;22;20186;-91
2023/05/17 01:09:09;;;;;;;12.25;3.45;;;;;;;;;;6258743;22;20163;-90
2023/05/17 01:12:19;;;;;;;12.55;2.70;;;;;;;;;;6241833;23;20159;-91
2023/05/17 01:15:26;;;;;;;12.25;2.80;;;;;;;;;;6260187;22;20178;-93
2023/05/17 01:18:39;;;;;;;7.65;2.78;;;;;;;;;;6241694;22;20278;-91
2023/05/17 01:21:54;;;;;;;11.02;3.47;;;;;;;;;;6259485;22;20239;-92
2023/05/17 01:25:08;;;;;;;10.88;3.95;;;;;;;;;;6242198;22;20167;-91
2023/05/17 01:28:15;;;;;;;15.77;3.67;;;;;;;;;;6260379;22;20194;-91
2023/05/17 01:31:21;;;;;;;9.23;3.10;;;;;;;;;;6244196;22;20166;-92
2023/05/17 01:34:27;;;;;;;13.68;3.30;;;;;;;;;;6260737;22;20162;-90
2023/05/17 01:37:32;;;;;;;8.82;3.00;;;;;;;;;;6258786;22;20198;-90
2023/05/17 01:40:40;;;;;;;11.10;2.83;;;;;;;;;;6258563;22;20182;-90
2023/05/17 01:43:51;;;;;;;9.55;3.13;;;;;;;;;;6240925;22;20606;-90
2023/05/17 01:47:00;;;;;;;4.75;2.70;;;;;;;;;;6260346;22;20497;-91
2023/05/17 01:50:06;;;;;;;7.55;3.00;;;;;;;;;;6260286;22;20216;-88
2023/05/17 01:53:12;;;;;;;11.02;2.67;;;;;;;;;;6241361;23;20181;-89
2023/05/17 01:56:21;;;;;;;7.43;2.80;;;;;;;;;;6241533;22;20174;-91
2023/05/17 01:59:28;;;;;;;6.65;2.33;;;;;;;;;;6258662;22;20170;-89
2023/05/17 02:02:34;;;;;;;11.50;2.25;;;;;;;;;;6242897;22;20249;-90
2023/05/17 02:05:39;;;;;;;6.50;2.50;;;;;;;;;;6241668;22;20163;-90
2023/05/17 02:08:45;;;;;;;5.95;2.20;;;;;;;;;;6239510;22;20167;-90
2023/05/17 02:11:51;;;;;;;11.93;2.60;;;;;;;;;;6241689;22;20149;-92
2023/05/17 02:14:57;;;;;;;9.93;2.35;;;;;;;;;;6256460;22;20186;-91
2023/05/17 02:18:04;;;;;;;6.82;2.40;;;;;;;;;;6239232;22;20227;-91
2023/05/17 02:21:09;;;;;;;10.70;2.78;;;;;;;;;;6258186;22;20649;-90
2023/05/17 02:24:15;;;;;;;7.28;2.38;;;;;;;;;;6240732;22;20178;-91
2023/05/17 02:27:21;;;;;;;12.02;2.50;;;;;;;;;;6258253;22;20145;-90
2023/05/17 02:30:28;;;;;;;5.13;2.35;;;;;;;;;;6240799;23;20282;-91
2023/05/17 02:33:33;;;;;;;8.55;2.35;;;;;;;;;;6242450;22;20146;-92
2023/05/17 02:36:39;;;;;;;6.10;2.00;;;;;;;;;;6242059;22;20163;-92
2023/05/17 02:39:44;;;;;;;13.00;1.70;;;;;;;;;;6261185;22;20243;-91
2023/05/17 02:42:50;;;;;;;7.45;2.35;;;;;;;;;;6262345;23;20209;-91
2023/05/17 02:45:56;;;;;;;5.22;1.75;;;;;;;;;;6244491;23;20206;-90
2023/05/17 02:49:01;;;;;;;9.85;2.80;;;;;;;;;;6243676;22;20194;-91
2023/05/17 02:52:06;;;;;;;7.22;2.00;;;;;;;;;;6259232;22;20166;-91
2023/05/17 02:55:11;;;;;;;7.35;2.10;;;;;;;;;;6241221;22;20150;-91
2023/05/17 02:58:17;;;;;;;5.32;1.98;;;;;;;;;;6242420;23;20520;-91
2023/05/17 03:01:23;;;;;;;6.05;1.77;;;;;;;;;;6261637;22;20166;-91
2023/05/17 03:04:29;;;;;;;6.10;2.00;;;;;;;;;;6261441;22;20237;-90
2023/05/17 03:07:34;;;;;;;7.25;1.77;;;;;;;;;;6263074;23;20170;-89
2023/05/17 03:10:39;;;;;;;6.65;2.28;;;;;;;;;;6244231;22;20198;-92
2023/05/17 03:13:50;;;;;;;8.70;1.95;;;;;;;;;;6259969;22;20214;-92
2023/05/17 03:16:58;;;;;;;8.55;2.22;;;;;;;;;;6260440;22;20206;-92
2023/05/17 03:20:05;;;;;;;9.27;2.42;;;;;;;;;;6278286;22;20178;-91
2023/05/17 03:23:10;;;;;;;8.32;2.83;;;;;;;;;;6278823;22;20213;-91
2023/05/17 03:26:26;;;;;;;8.45;2.70;;;;;;;;;;6261374;22;20151;-92
2023/05/17 03:29:31;;;;;;;9.82;3.33;;;;;;;;;;6261090;22;20169;-91
2023/05/17 03:32:40;;;;;;;12.60;3.85;;;;;;;;;;6278861;22;20218;-91
2023/05/17 03:35:46;;;;;;;8.43;2.80;;;;;;;;;;6280354;22;20166;-92
2023/05/17 03:38:51;;;;;;;7.15;2.83;;;;;;;;;;6277836;22;20217;-90
2023/05/17 03:41:56;;;;;;;8.05;2.83;;;;;;;;;;6259635;22;20162;-88
2023/05/17 03:45:03;;;;;;;12.52;3.17;;;;;;;;;;6260644;22;20174;-91
2023/05/17 03:48:09;;;;;;;11.80;3.95;;;;;;;;;;6260083;23;20167;-92
2023/05/17 03:51:14;;;;;;;11.35;3.50;;;;;;;;;;6261831;22;20166;-92
2023/05/17 03:54:20;;;;;;;12.55;3.78;;;;;;;;;;6260927;22;20171;-91
2023/05/17 03:57:25;;;;;;;11.43;3.60;;;;;;;;;;6267666;22;20209;-90
2023/05/17 04:00:31;;;;;;;9.05;4.00;;;;;;;;;;6262187;23;20175;-90
2023/05/17 04:03:42;;;;;;;12.50;3.88;;;;;;;;;;6262105;22;20167;-90
2023/05/17 04:06:48;;;;;;;8.98;4.50;;;;;;;;;;6283097;22;20165;-90
2023/05/17 04:09:57;;;;;;;11.63;4.70;;;;;;;;;;6279457;22;20182;-92
2023/05/17 04:13:02;;;;;;;12.98;3.63;;;;;;;;;;6261956;22;20163;-93
2023/05/17 04:16:08;;;;;;;10.75;3.03;;;;;;;;;;6278101;22;20185;-89
2023/05/17 04:19:17;;;;;;;11.75;4.07;;;;;;;;;;6281285;22;20235;-91
2023/05/17 04:22:35;;;;;;;7.95;2.47;;;;;;;;;;6262470;22;20154;-91
2023/05/17 04:25:41;;;;;;;6.30;2.40;;;;;;;;;;6259221;22;20155;-91
2023/05/17 04:28:49;;;;;;;6.35;1.95;;;;;;;;;;6262270;22;20193;-92
2023/05/17 04:31:55;;;;;;;8.40;2.40;;;;;;;;;;6278753;22;20171;-91
2023/05/17 04:35:02;;;;;;;9.32;2.63;;;;;;;;;;6277972;22;20234;-90
2023/05/17 04:38:08;;;;;;;13.88;3.63;;;;;;;;;;6260317;23;20197;-92
2023/05/17 04:41:14;;;;;;;14.13;6.70;;;;;;;;;;6278355;22;20181;-91
2023/05/17 04:44:30;;;;;;;13.13;6.05;;;;;;;;;;6277071;22;20175;-89
2023/05/17 04:47:36;;;;;;;9.00;2.55;;;;;;;;;;6276805;22;20175;-90
2023/05/17 04:50:46;;;;;;;11.40;2.47;;;;;;;;;;6275512;22;20245;-91
2023/05/17 04:53:51;;;;;;;9.23;2.55;;;;;;;;;;6259737;22;20162;-90
2023/05/17 04:56:56;;;;;;;9.55;2.20;;;;;;;;;;6259932;22;20161;-91
2023/05/17 05:00:22;;;;;;;4.93;1.60;;;;;;;;;;6258498;22;20610;-93
2023/05/17 05:03:35;;;;;;;6.07;1.67;;;;;;;;;;6278007;22;20395;-91
2023/05/17 05:06:43;;;;;;;11.77;2.88;;;;;;;;;;6278665;22;20162;-88
2023/05/17 05:09:49;;;;;;;7.22;2.28;;;;;;;;;;6278344;22;20169;-92
2023/05/17 05:12:56;;;;;;;6.43;1.75;;;;;;;;;;6278377;22;20150;-89
2023/05/17 05:16:02;;;;;;;7.50;2.42;;;;;;;;;;6277105;22;20293;-93
2023/05/17 05:19:09;;;;;;;8.57;2.58;;;;;;;;;;6261877;23;20214;-93
2023/05/17 05:22:43;;;;;;;9.27;2.25;;;;;;;;;;6259365;23;20190;-90
2023/05/17 05:25:51;;;;;;;6.95;1.67;;;;;;;;;;6260445;22;20237;-90
2023/05/17 05:28:56;;;;;;;8.68;1.80;;;;;;;;;;6275765;22;20234;-93
2023/05/17 05:32:02;;;;;;;11.35;1.80;;;;;;;;;;6259582;23;20170;-88
2023/05/17 05:35:10;;;;;;;8.68;1.75;;;;;;;;;;6277802;22;20505;-90
2023/05/17 05:38:15;;;;;;;4.38;2.00;;;;;;;;;;6280921;22;20190;-92
2023/05/17 05:41:22;;;;;;;8.48;2.10;;;;;;;;;;6280928;22;20198;-91
2023/05/17 05:47:48;;;;;;;6.93;2.10;;;;;;;;;;6262280;22;20186;-90
2023/05/17 05:50:54;;;;;;;5.20;1.60;;;;;;;;;;6262070;23;20165;-92
2023/05/17 05:54:00;;;;;;;4.97;1.88;;;;;;;;;;6263291;22;20183;-91
2023/05/17 05:57:07;;;;;;;3.85;1.95;;;;;;;;;;6264071;22;20155;-89
2023/05/17 06:00:14;;;;;;;10.63;2.33;;;;;;;;;;6281620;22;20174;-90
2023/05/17 06:03:21;;;;;;;4.65;1.67;;;;;;;;;;6262934;23;20175;-91
2023/05/17 06:06:27;;;;;;;8.48;2.25;;;;;;;;;;6280723;22;20166;-92
2023/05/17 06:09:32;;;;;;;6.03;2.25;;;;;;;;;;6280957;22;20182;-92
2023/05/17 06:12:38;;;;;;;10.20;2.08;;;;;;;;;;6261312;22;20170;-93
2023/05/17 06:15:44;;;;;;;5.47;1.42;;;;;;;;;;6280073;22;20272;-90
2023/05/17 06:18:55;;;;;;;6.32;1.50;;;;;;;;;;6263652;22;20178;-90
2023/05/17 06:22:26;;;;;;;4.32;1.50;;;;;;;;;;6260148;23;20242;-92
2023/05/17 06:25:32;;;;;;;4.70;1.33;;;;;;;;;;6278909;22;20171;-91
2023/05/17 06:29:02;;;;;;;5.40;1.38;;;;;;;;;;6260253;22;20240;-91
2023/05/17 06:32:09;;;;;;;7.82;1.50;;;;;;;;;;6279553;22;20174;-93
2023/05/17 06:35:15;;;;;;;8.88;1.30;;;;;;;;;;6261656;22;20242;-93
2023/05/17 06:38:20;;;;;;;3.70;1.40;;;;;;;;;;6262672;23;20194;-92
2023/05/17 06:44:45;;;;;;;2.40;1.30;;;;;;;;;;6261134;22;20246;-94
2023/05/17 06:47:51;;;;;;;5.38;1.23;;;;;;;;;;6260851;22;20175;-92
2023/05/17 06:50:56;;;;;;;5.18;1.40;;;;;;;;;;6262345;22;20150;-92
2023/05/17 06:54:02;;;;;;;2.95;1.38;;;;;;;;;;6261701;23;20187;-91
2023/05/17 06:57:08;;;;;;;10.73;1.50;;;;;;;;;;6261581;22;20498;-90
2023/05/17 07:00:14;;;;;;;8.45;1.58;;;;;;;;;;6260479;22;20170;-93
2023/05/17 07:03:23;;;;;;;5.90;1.88;;;;;;;;;;6278338;22;20539;-90
2023/05/17 07:06:28;;;;;;;6.60;1.75;;;;;;;;;;6264753;22;20219;-92
2023/05/17 07:09:34;;;;;;;6.72;1.55;;;;;;;;;;6263671;22;20163;-93
2023/05/17 07:12:39;;;;;;;4.90;1.40;;;;;;;;;;6262439;22;20162;-92
2023/05/17 07:15:44;;;;;;;8.55;1.30;;;;;;;;;;6260806;22;20202;-93
2023/05/17 07:18:55;;;;;;;7.32;1.48;;;;;;;;;;6264318;22;20301;-92
2023/05/17 07:22:05;;;;;;;6.40;1.88;;;;;;;;;;6282024;22;20162;-91
2023/05/17 07:32:33;;;;;;;10.20;1.20;;;;;;;;;;6267846;22;20398;-92
2023/05/17 07:35:40;;;;;;;12.32;1.83;;;;;;;;;;6264826;22;20611;-92
2023/05/17 07:38:47;;;;;;;3.38;1.50;;;;;;;;;;6283782;22;20181;-93
2023/05/17 07:41:52;;;;;;;16.08;1.77;;;;;;;;;;6265031;22;20162;-92
2023/05/17 07:44:58;;;;;;;13.10;1.80;;;;;;;;;;6265003;22;20209;-92
2023/05/17 07:48:04;;;;;;;6.82;1.40;;;;;;;;;;6263357;22;20226;-92
2023/05/17 07:51:12;;;;;;;10.10;1.90;;;;;;;;;;6283418;22;20154;-92
2023/05/17 07:54:26;;;;;;;5.80;1.92;;;;;;;;;;6263963;22;20205;-93
2023/05/17 07:57:31;;;;;;;9.98;1.40;;;;;;;;;;6279255;22;20167;-91
2023/05/17 08:00:37;;;;;;;12.60;1.75;;;;;;;;;;6262340;22;20175;-93
2023/05/17 08:03:46;;;;;;;9.07;1.60;;;;;;;;;;6262700;22;20170;-93
2023/05/17 08:06:54;;;;;;;9.88;1.70;;;;;;;;;;6263224;22;20286;-92
2023/05/17 08:10:00;;;;;;;7.88;3.17;;;;;;;;;;6263633;22;20224;-91
2023/05/17 08:13:06;;;;;;;7.63;1.67;;;;;;;;;;6281537;22;20210;-91
2023/05/17 08:20:39;;;;;;;7.22;1.67;;;;;;;;;;6265996;22;20171;-90
2023/05/17 08:24:03;;;;;;;6.07;1.58;;;;;;;;;;6284717;22;20150;-90
2023/05/17 08:27:29;;;;;;;10.25;1.67;;;;;;;;;;6264695;22;20155;-91
2023/05/17 08:30:39;;;;;;;5.93;1.55;;;;;;;;;;6262553;22;20229;-90
2023/05/17 08:33:45;;;;;;;7.93;1.50;;;;;;;;;;6282854;22;20173;-91
2023/05/17 08:36:59;;;;;;;4.45;1.30;;;;;;;;;;6285444;22;20186;-91
2023/05/17 08:40:07;;;;;;;6.65;1.63;;;;;;;;;;6267088;23;20258;-92
2023/05/17 08:43:17;;;;;;;7.22;1.65;;;;;;;;;;6265582;22;20220;-90
2023/05/17 08:46:25;;;;;;;9.75;2.15;;;;;;;;;;6263493;22;20166;-92
2023/05/17 08:49:33;;;;;;;5.13;1.55;;;;;;;;;;6263839;22;20171;-92
2023/05/17 08:52:40;;;;;;;5.05;1.60;;;;;;;;;;6260529;23;20185;-94
2023/05/17 08:55:47;;;;;;;7.75;1.70;;;;;;;;;;6264250;22;20244;-94
2023/05/17 08:58:55;;;;;;;8.82;1.33;;;;;;;;;;6261933;22;20217;-92
2023/05/17 09:02:16;;;;;;;6.05;1.52;;;;;;;;;;6264802;23;20218;-91
2023/05/17 09:05:35;;;;;;;6.35;1.73;;;;;;;;;;6282197;22;20166;-90
2023/05/17 09:08:40;;;;;;;8.43;1.90;;;;;;;;;;6281502;22;20159;-91
2023/05/17 09:11:46;;;;;;;7.35;1.95;;;;;;;;;;6261710;22;20166;-92
2023/05/17 09:14:53;;;;;;;6.90;1.80;;;;;;;;;;6281779;22;20158;-90
2023/05/17 09:18:00;;;;;;;5.38;2.00;;;;;;;;;;6249006;22;20210;-90
2023/05/17 09:21:08;;;;;;;5.75;1.58;;;;;;;;;;6245050;22;20194;-90
2023/05/17 09:24:26;;;;;;;7.43;2.10;;;;;;;;;;6263633;22;20214;-93
2023/05/17 09:27:33;;;;;;;6.78;1.50;;;;;;;;;;6244754;22;20418;-92
2023/05/17 09:30:41;;;;;;;4.43;1.92;;;;;;;;;;6262226;22;20166;-93
2023/05/17 09:33:47;;;;;;;7.60;1.90;;;;;;;;;;6245831;22;20241;-92
2023/05/17 09:36:54;;;;;;;14.15;3.15;;;;;;;;;;6263657;22;20178;-93
2023/05/17 09:40:09;;;;;;;11.25;1.75;;;;;;;;;;6246570;22;20179;-90
2023/05/17 09:43:15;;;;;;;11.20;1.90;;;;;;;;;;6246524;22;20163;-91
2023/05/17 09:46:21;;;;;;;10.80;2.15;;;;;;;;;;6246839;22;20170;-92
2023/05/17 09:49:28;;;;;;;9.20;2.05;;;;;;;;;;6264938;22;20175;-90
2023/05/17 09:52:38;;;;;;;6.35;1.42;;;;;;;;;;6264965;22;20198;-92
2023/05/17 09:55:48;;;;;;;6.18;1.38;;;;;;;;;;6248186;22;20174;-91
2023/05/17 09:58:55;;;;;;;9.60;1.58;;;;;;;;;;6246770;22;20198;-93
2023/05/17 10:02:00;;;;;;;6.05;1.50;;;;;;;;;;6265227;22;20153;-93
2023/05/17 10:05:17;;;;;;;5.32;1.50;;;;;;;;;;6247843;22;20658;-91
2023/05/17 10:08:27;;;;;;;9.82;1.65;;;;;;;;;;6264214;22;20182;-90
2023/05/17 10:11:33;;;;;;;6.95;1.98;;;;;;;;;;6263289;22;20171;-92
2023/05/17 10:14:39;;;;;;;9.60;1.70;;;;;;;;;;6262612;22;20150;-92
2023/05/17 10:17:45;;;;;;;6.70;1.70;;;;;;;;;;6245174;22;20211;-90
2023/05/17 10:20:51;;;;;;;7.13;1.60;;;;;;;;;;6245688;22;20154;-90
2023/05/17 10:28:21;;;;;;;6.03;1.63;;;;;;;;;;6250041;22;20162;-89
2023/05/17 10:31:28;;;;;;;10.52;1.80;;;;;;;;;;6263113;22;20170;-92
2023/05/17 10:34:36;;;;;;;4.68;1.40;;;;;;;;;;6247392;22;20233;-93
2023/05/17 10:37:43;;;;;;;7.00;1.60;;;;;;;;;;6264543;22;20219;-92
2023/05/17 10:40:50;;;;;;;5.75;1.77;;;;;;;;;;6262855;22;20194;-92
2023/05/17 10:43:56;;;;;;;7.38;1.85;;;;;;;;;;6262701;22;20150;-90
2023/05/17 10:47:03;;;;;;;6.60;1.65;;;;;;;;;;6244663;22;20231;-93
2023/05/17 10:50:13;;;;;;;5.88;1.40;;;;;;;;;;6247000;22;20194;-92
2023/05/17 10:53:18;;;;;;;4.72;1.73;;;;;;;;;;6246436;22;20170;-92
2023/05/17 10:56:25;;;;;;;13.55;2.40;;;;;;;;;;6246230;22;20162;-94
2023/05/17 10:59:31;;;;;;;5.05;2.00;;;;;;;;;;6267249;22;20181;-89
2023/05/17 11:02:41;;;;;;;4.78;1.50;;;;;;;;;;6265401;22;20185;-92
2023/05/17 11:06:07;;;;;;;8.45;1.65;;;;;;;;;;6247904;22;20522;-92
2023/05/17 11:12:36;;;;;;;7.78;1.40;;;;;;;;;;6249378;22;20170;-93
2023/05/17 11:15:42;;;;;;;7.65;1.92;;;;;;;;;;6249651;22;20228;-91
2023/05/17 11:18:51;;;;;;;6.43;1.50;;;;;;;;;;6265441;22;20183;-92
2023/05/17 11:21:56;;;;;;;7.63;2.22;;;;;;;;;;6283490;22;20243;-90
2023/05/17 11:25:03;;;;;;;8.68;1.70;;;;;;;;;;6266407;22;20171;-93
2023/05/17 11:28:09;;;;;;;12.65;2.15;;;;;;;;;;6266276;22;20203;-91
2023/05/17 11:31:14;;;;;;;7.07;2.45;;;;;;;;;;6264637;22;20163;-90
2023/05/17 11:34:25;;;;;;;7.80;2.08;;;;;;;;;;6280024;22;20198;-91
2023/05/17 11:37:31;;;;;;;4.53;1.85;;;;;;;;;;6264514;22;20598;-92
2023/05/17 11:40:37;;;;;;;6.32;1.88;;;;;;;;;;6263556;22;20194;-91
2023/05/17 11:43:52;;;;;;;8.65;2.53;;;;;;;;;;6264358;22;20166;-91
2023/05/17 11:47:04;;;;;;;7.07;2.05;;;;;;;;;;6283793;22;20171;-92
2023/05/17 11:50:18;;;;;;;7.10;1.80;;;;;;;;;;6283743;22;20159;-92
2023/05/17 11:53:26;;;;;;;11.88;1.70;;;;;;;;;;6264451;22;20154;-92
2023/05/17 11:56:35;;;;;;;7.15;1.67;;;;;;;;;;6264998;22;20656;-91
2023/05/17 11:59:41;;;;;;;13.90;1.73;;;;;;;;;;6267508;22;20214;-92
2023/05/17 12:02:47;;;;;;;7.57;1.85;;;;;;;;;;6265380;22;20162;-92
2023/05/17 12:06:03;;;;;;;7.00;1.88;;;;;;;;;;6263736;22;20174;-92
2023/05/17 12:12:33;;;;;;;10.05;2.10;;;;;;;;;;6263807;22;20737;-93
2023/05/17 12:15:40;;;;;;;6.38;1.92;;;;;;;;;;6263926;22;20181;-92
2023/05/17 12:18:45;;;;;;;7.63;2.63;;;;;;;;;;6264448;22;20150;-91
2023/05/17 12:21:54;;;;;;;6.63;2.10;;;;;;;;;;6263393;22;20150;-92
2023/05/17 12:24:59;;;;;;;5.57;1.90;;;;;;;;;;6280888;22;20206;-92
2023/05/17 12:28:17;;;;;;;9.45;2.30;;;;;;;;;;6279414;22;20171;-93
2023/05/17 12:31:26;;;;;;;8.57;2.00;;;;;;;;;;6278643;22;20256;-92
2023/05/17 12:37:53;;;;;;;11.10;2.30;;;;;;;;;;6263924;22;20198;-91
2023/05/17 12:40:59;;;;;;;5.32;1.65;;;;;;;;;;6271899;22;20268;-91
2023/05/17 12:44:14;;;;;;;8.18;2.15;;;;;;;;;;6326530;22;20173;-92
2023/05/17 12:47:19;;;;;;;5.32;1.90;;;;;;;;;;6305688;22;20204;-92
2023/05/17 12:50:30;;;;;;;7.70;1.85;;;;;;;;;;6303987;22;20184;-91
2023/05/17 12:53:37;;;;;;;4.57;1.98;;;;;;;;;;6306125;22;20165;-91
2023/05/17 12:56:43;;;;;;;7.18;2.13;;;;;;;;;;6323957;22;20221;-91
2023/05/17 12:59:50;;;;;;;8.73;2.30;;;;;;;;;;6305545;22;20188;-93
2023/05/17 13:02:55;;;;;;;8.70;2.20;;;;;;;;;;6305649;22;20157;-92
2023/05/17 13:06:06;;;;;;;7.93;2.20;;;;;;;;;;6306441;22;20643;-91
2023/05/17 13:09:13;;;;;;;8.60;2.50;;;;;;;;;;6307306;22;20623;-90
2023/05/17 13:12:22;;;;;;;6.22;1.85;;;;;;;;;;6306459;22;20243;-91
2023/05/17 13:15:31;;;;;;;7.75;2.10;;;;;;;;;;6305036;22;20165;-92
2023/05/17 13:18:54;;;;;;;5.30;2.05;;;;;;;;;;6307096;22;20144;-91
2023/05/17 13:21:59;;;;;;;9.50;2.20;;;;;;;;;;6308103;22;20226;-93
2023/05/17 13:25:14;;;;;;;5.47;1.90;;;;;;;;;;6308058;22;20160;-90
2023/05/17 13:34:22;;;;;;;9.05;2.38;;;;;;;;;;6315432;22;20660;-90
2023/05/17 13:37:29;;;;;;;7.25;2.53;;;;;;;;;;6323996;22;20165;-92
2023/05/17 13:40:38;;;;;;;8.20;2.45;;;;;;;;;;6325416;22;20712;-93
2023/05/17 13:43:44;;;;;;;7.68;2.38;;;;;;;;;;6324415;22;20172;-90
2023/05/17 13:46:49;;;;;;;6.70;2.17;;;;;;;;;;6322799;22;20164;-91
2023/05/17 13:49:54;;;;;;;7.30;2.80;;;;;;;;;;6325340;22;20211;-91
2023/05/17 13:53:00;;;;;;;5.80;1.80;;;;;;;;;;6324422;22;20517;-91
2023/05/17 13:56:16;;;;;;;9.07;2.33;;;;;;;;;;6298375;22;20232;-91
2023/05/17 13:59:21;;;;;;;3.55;1.95;;;;;;;;;;6309331;22;20184;-91
2023/05/17 14:02:27;;;;;;;7.22;2.10;;;;;;;;;;6325328;22;20169;-92
2023/05/17 14:34:54;;;;;;;7.80;2.00;;;;;;;;;;6282687;22;20224;-92
2023/05/17 14:38:00;;;;;;;3.67;1.80;;;;;;;;;;6327868;22;20165;-90
2023/05/17 14:59:20;;;;;;;6.88;2.47;;;;;;;;;;6333423;22;20161;-92
2023/05/17 16:01:11;;;;;;;8.57;2.30;;;;;;;;;;6276878;22;20632;-92
2023/05/17 16:04:16;;;;;;;8.75;2.45;;;;;;;;;;6306324;22;20165;-92
2023/05/17 16:07:27;;;;;;;6.57;2.03;;;;;;;;;;6327176;22;20241;-90
2023/05/17 16:10:32;;;;;;;4.05;2.00;;;;;;;;;;6324953;22;20221;-92
2023/05/17 16:13:38;;;;;;;7.15;2.10;;;;;;;;;;6326202;22;20160;-90
2023/05/17 16:17:08;;;;;;;11.35;2.08;;;;;;;;;;6325824;22;20160;-89
2023/05/17 16:20:17;;;;;;;8.98;2.08;;;;;;;;;;6305814;22;20192;-91
2023/05/17 16:23:38;;;;;;;9.20;2.55;;;;;;;;;;6326188;22;20164;-92
2023/05/17 16:26:51;;;;;;;6.55;2.03;;;;;;;;;;6327440;22;20173;-93
2023/05/17 16:29:56;;;;;;;5.20;2.15;;;;;;;;;;6308073;22;20209;-92
2023/05/17 16:33:02;;;;;;;8.77;2.70;;;;;;;;;;6328066;22;20347;-91
2023/05/17 16:36:11;;;;;;;9.57;2.53;;;;;;;;;;6310916;22;20153;-94
2023/05/17 16:39:17;;;;;;;10.02;2.30;;;;;;;;;;6325966;22;20169;-91
2023/05/17 16:42:24;;;;;;;6.97;2.85;;;;;;;;;;6325582;22;20196;-92
2023/05/17 16:45:30;;;;;;;7.95;2.95;;;;;;;;;;6309754;22;20164;-90
2023/05/17 16:48:36;;;;;;;8.45;2.60;;;;;;;;;;6327529;22;20484;-92
2023/05/17 16:51:44;;;;;;;12.43;2.35;;;;;;;;;;6308228;22;20173;-92
2023/05/17 16:54:49;;;;;;;7.32;2.42;;;;;;;;;;6324717;22;20169;-90
2023/05/17 16:57:55;;;;;;;8.27;2.60;;;;;;;;;;6300572;22;20254;-91
2023/05/17 17:01:00;;;;;;;6.32;2.10;;;;;;;;;;6338630;22;20223;-91
2023/05/17 17:04:05;;;;;;;10.50;2.75;;;;;;;;;;6339061;22;20636;-89
2023/05/17 17:07:12;;;;;;;7.75;2.60;;;;;;;;;;6338742;22;20233;-91
2023/05/17 17:10:18;;;;;;;7.15;2.60;;;;;;;;;;6339574;22;20175;-92
2023/05/17 17:13:25;;;;;;;10.68;2.72;;;;;;;;;;6338267;22;20624;-91
2023/05/17 17:17:09;;;;;;;8.27;3.22;;;;;;;;;;6337223;22;20168;-90
2023/05/17 17:20:14;;;;;;;12.02;2.90;;;;;;;;;;6338414;22;20235;-90
2023/05/17 17:26:59;;;;;;;11.32;3.30;;;;;;;;;;6339330;22;20160;-91
2023/05/17 17:30:06;;;;;;;12.38;2.90;;;;;;;;;;6339135;22;20169;-92
2023/05/17 17:33:11;;;;;;;5.28;2.38;;;;;;;;;;6338113;22;20169;-91
2023/05/17 17:36:22;;;;;;;10.65;2.90;;;;;;;;;;6339523;22;20164;-90
2023/05/17 17:39:27;;;;;;;8.63;2.30;;;;;;;;;;6337911;22;20194;-91
2023/05/17 17:42:35;;;;;;;7.85;2.58;;;;;;;;;;6335701;22;20156;-92
2023/05/17 17:45:40;;;;;;;8.52;2.63;;;;;;;;;;6336009;22;20183;-91
2023/05/17 17:48:45;;;;;;;55.58;9.35;;;;;;;;;;6337331;22;20168;-91
2023/05/17 17:51:51;;;;;;;5.93;2.35;;;;;;;;;;6338344;22;20168;-92
2023/05/17 17:55:00;;;;;;;6.32;2.47;;;;;;;;;;6339180;22;20164;-90
2023/05/17 17:58:08;;;;;;;7.72;2.95;;;;;;;;;;6340600;22;20248;-91
2023/05/17 18:01:19;;;;;;;8.68;2.65;;;;;;;;;;6340018;22;20191;-92
2023/05/17 18:04:27;;;;;;;8.43;3.25;;;;;;;;;;6340147;22;20163;-92
2023/05/17 18:07:32;;;;;;;9.77;3.30;;;;;;;;;;6340704;22;20212;-88
2023/05/17 18:10:38;;;;;;;13.88;3.92;;;;;;;;;;6339606;22;20171;-90
2023/05/17 18:13:46;;;;;;;9.38;3.47;;;;;;;;;;6339417;22;20160;-93
2023/05/17 18:20:43;;;;;;;5.60;3.25;;;;;;;;;;6339324;22;20206;-92
2023/05/17 18:24:03;;;;;;;9.60;3.80;;;;;;;;;;6339611;22;20163;-90
2023/05/17 18:27:11;;;;;;;11.52;3.65;;;;;;;;;;6339303;22;20148;-91
2023/05/17 18:30:21;;;;;;;12.95;3.95;;;;;;;;;;6337469;22;20221;-93
2023/05/17 18:33:27;;;;;;;12.93;4.15;;;;;;;;;;6340644;22;20160;-89
2023/05/17 18:36:33;;;;;;;22.45;8.40;;;;;;;;;;6340397;22;20160;-93
2023/05/17 18:39:39;;;;;;;21.75;8.48;;;;;;;;;;6339781;22;20226;-93
2023/05/17 18:42:45;;;;;;;12.43;5.22;;;;;;;;;;6341591;22;20153;-92
2023/05/17 18:45:53;;;;;;;12.93;4.15;;;;;;;;;;6339917;22;20211;-91
2023/05/17 18:49:00;;;;;;;9.95;4.10;;;;;;;;;;6340911;22;20160;-92
2023/05/17 18:52:07;;;;;;;12.88;4.90;;;;;;;;;;6340191;22;20160;-91
2023/05/17 18:55:13;;;;;;;11.45;4.80;;;;;;;;;;6340078;22;20164;-93
2023/05/17 18:58:19;;;;;;;17.10;6.18;;;;;;;;;;6340960;22;20512;-93
2023/05/17 19:01:27;;;;;;;24.08;10.80;;;;;;;;;;6339339;22;20191;-91
2023/05/17 19:04:32;;;;;;;12.52;4.63;;;;;;;;;;6340743;22;20164;-92
2023/05/17 19:07:38;;;;;;;29.50;13.73;;;;;;;;;;6340414;22;20251;-93
2023/05/17 19:10:44;;;;;;;10.23;4.43;;;;;;;;;;6339447;22;20163;-90
2023/05/17 19:13:50;;;;;;;94.28;32.75;;;;;;;;;;6339951;22;20169;-94
2023/05/17 19:16:58;;;;;;;43.30;18.25;;;;;;;;;;6339072;22;20156;-92
2023/05/17 19:20:04;;;;;;;23.10;12.20;;;;;;;;;;6342718;22;20254;-92
2023/05/17 19:23:11;;;;;;;11.32;5.07;;;;;;;;;;6341658;22;20599;-91
2023/05/17 19:26:43;;;;;;;13.73;4.40;;;;;;;;;;6343014;22;20232;-92
2023/05/17 19:29:48;;;;;;;9.65;4.78;;;;;;;;;;6343765;22;20192;-91
2023/05/17 19:32:55;;;;;;;13.88;5.05;;;;;;;;;;6344845;22;20187;-91
2023/05/17 19:36:01;;;;;;;20.55;8.20;;;;;;;;;;6343329;22;20270;-90
2023/05/17 19:39:07;;;;;;;33.25;14.82;;;;;;;;;;6342977;22;20207;-92
2023/05/17 19:42:13;;;;;;;17.85;9.30;;;;;;;;;;6341526;22;20654;-92
2023/05/17 19:45:18;;;;;;;13.05;5.57;;;;;;;;;;6341420;22;20184;-93
2023/05/17 19:48:25;;;;;;;7.78;4.55;;;;;;;;;;6339938;22;20165;-91
2023/05/17 19:51:31;;;;;;;10.07;4.63;;;;;;;;;;6339870;22;20172;-90
2023/05/17 19:54:37;;;;;;;9.35;5.10;;;;;;;;;;6341357;22;20159;-92
2023/05/17 19:57:43;;;;;;;16.02;6.07;;;;;;;;;;6340186;22;20161;-93
2023/05/17 20:00:48;;;;;;;12.00;5.25;;;;;;;;;;6341704;22;20180;-91
2023/05/17 20:03:55;;;;;;;22.10;11.50;;;;;;;;;;6341189;22;20412;-90
2023/05/17 20:07:01;;;;;;;20.83;8.52;;;;;;;;;;6339870;22;20165;-93
2023/05/17 20:10:07;;;;;;;11.15;4.93;;;;;;;;;;6342913;22;20216;-91
2023/05/17 20:16:31;;;;;;;12.68;6.50;;;;;;;;;;6342286;22;20144;-89
2023/05/17 20:19:38;;;;;;;11.80;5.50;;;;;;;;;;6340392;22;20165;-90
2023/05/17 20:22:45;;;;;;;12.85;4.95;;;;;;;;;;6340928;22;20184;-89
2023/05/17 20:25:50;;;;;;;11.68;4.47;;;;;;;;;;6338567;22;20233;-91
2023/05/17 20:28:56;;;;;;;8.73;4.28;;;;;;;;;;6338600;22;20206;-95
2023/05/17 20:32:01;;;;;;;10.82;4.43;;;;;;;;;;6339227;22;20198;-92
2023/05/17 20:35:08;;;;;;;8.93;4.78;;;;;;;;;;6334599;22;20176;-91
2023/05/17 20:38:13;;;;;;;10.63;4.13;;;;;;;;;;6355072;22;20168;-89
2023/05/17 20:41:21;;;;;;;8.63;4.10;;;;;;;;;;6338838;22;20200;-93
2023/05/17 20:44:26;;;;;;;6.72;3.90;;;;;;;;;;6339477;22;20213;-92
2023/05/17 20:47:32;;;;;;;13.63;4.70;;;;;;;;;;6339630;22;20161;-93
2023/05/17 20:50:40;;;;;;;9.77;4.32;;;;;;;;;;6338258;22;20152;-95
2023/05/17 20:53:46;;;;;;;12.50;5.35;;;;;;;;;;6337775;22;20149;-90
2023/05/17 20:56:51;;;;;;;8.90;4.50;;;;;;;;;;6339970;22;20153;-90
2023/05/17 20:59:57;;;;;;;11.27;5.10;;;;;;;;;;6340432;22;20216;-91
2023/05/17 21:03:03;;;;;;;7.85;4.43;;;;;;;;;;6340730;22;20651;-90
2023/05/17 21:06:10;;;;;;;13.20;5.60;;;;;;;;;;6339342;22;20203;-91
2023/05/17 21:09:17;;;;;;;16.30;5.65;;;;;;;;;;6338863;22;20175;-92
2023/05/17 21:12:22;;;;;;;9.10;4.70;;;;;;;;;;6338052;22;20172;-90
2023/05/17 21:15:28;;;;;;;11.02;4.70;;;;;;;;;;6338592;22;20214;-93
2023/05/17 21:18:33;;;;;;;10.70;5.60;;;;;;;;;;6337132;22;20221;-92
2023/05/17 21:21:40;;;;;;;9.70;4.75;;;;;;;;;;6338960;22;20230;-91
2023/05/17 21:24:45;;;;;;;9.95;4.78;;;;;;;;;;6339883;22;20168;-90